Mandla Airstrip

IN-0102 · 中央邦, 印度

使用的METAR站距离机场81 km。
罗盘
风向 的
风: 2 kt, 1 beaufort

添加一条跑道以查看侧风和逆风信息。

添置 跑道
0 ft 2.000 4.000 6.000 8.000 10.000
Cloud Cloud Cloud Cloud
SCT 2.500
Cloud Cloud
FEW 3.000
Cloud Cloud Cloud Cloud Cloud Cloud
BKN 10.000
METAR VAJB 171300Z VRB02KT 5000 HZ SCT025 FEW030TCU BKN100 31/25 Q1000 NOSIG

METAR Mandla Airstrip - IN-0102

Mandla Airstrip是,印度中的小机场。 该机场位于纬度22,50093和经度80,33120。 这个机场没有ICAO代码,我们使用IN-0102作为参考。 机场在Mumbai FIR中。

该航空气象观测是针对Jabalpur Airport在2024年7月17日 18:30, 当地时间进行的。

机场观察

可变方向的风很小或没有风。

可见度为5 km。

有疏云,零星散落的云朵在2.500 ft的高度, 几云 高耸的积云在3.000 ft的高度 和 碎云在10.000 ft的高度。 破损或更高的上限为10.000 ft。

当前天气为阴霾。 温度和风寒是31 °C。 热指数为38。 露点为25 °C,相对湿度为70%。 海平面上的气压为1000 hPa (QNH)。

白天

今天,太阳从05:34升起,在18:55降落。 这适用于Mandla Airstrip,世界夏令时可能有所不同。 当地时间与世界标准时间之间的时差为+5 小时 30 分钟。 夏令时目前正在进行中。

公司介绍

我们没有关于这个机场的公司信息。

体会

到Vliegles.nl去找飞行课程,跳伞和其他飞行体验。 浏览页面,了解Mandla Airstrip附近所有可用的活动。 你也可以使用搜索功能来寻找你所在地附近的特定飞行课程、跳伞或其他飞行体验。

乌云

2.500 ft SCT 疏云,零星散落的云朵
3.000 ft FEW 几云 高耸的积云
10.000 ft BKN 碎云

温度 & 天气

天气 阴霾
温度 31 °C
露点 25 °C
相对湿度 70%
热度指数 38 °C
Kp-index 0 (0-9)

白天

日出
05:33
中午
12:16
日落
18:58 (21m)

小工具

你想在你的网站上有一个关于Mandla Airstrip的当前航空天气(METAR)的小部件吗?

显示HTML代码
报告变更